createdAt,value
2022-11-01T00:01:38.800Z,19.24
2022-11-01T00:04:05.869Z,19.18
2022-11-01T00:06:32.384Z,19.14
2022-11-01T00:08:59.245Z,19.17
2022-11-01T00:11:26.101Z,19.10
2022-11-01T00:13:52.655Z,19.06
2022-11-01T00:16:20.521Z,18.97
2022-11-01T00:18:47.501Z,19.02
2022-11-01T00:21:15.383Z,19.13
2022-11-01T00:23:42.108Z,19.21
2022-11-01T00:26:13.887Z,19.28
2022-11-01T00:28:40.727Z,19.22
2022-11-01T00:31:10.240Z,19.28
2022-11-01T00:33:39.593Z,19.27
2022-11-01T00:36:07.041Z,19.28
2022-11-01T00:38:34.114Z,19.28
2022-11-01T00:41:02.665Z,19.33
2022-11-01T00:43:30.066Z,19.28
2022-11-01T00:45:57.042Z,19.26
2022-11-01T00:48:23.738Z,19.25
2022-11-01T00:50:50.362Z,19.31
2022-11-01T00:53:16.920Z,19.27
2022-11-01T00:55:43.434Z,19.28
2022-11-01T00:58:10.060Z,19.29
2022-11-01T01:00:36.803Z,19.30
2022-11-01T01:03:04.922Z,19.30
2022-11-01T01:05:33.157Z,19.30
2022-11-01T01:07:59.902Z,19.31
2022-11-01T01:10:26.565Z,19.32
2022-11-01T01:12:53.089Z,19.32
2022-11-01T01:15:19.949Z,19.34
2022-11-01T01:17:46.830Z,19.29
2022-11-01T01:20:14.302Z,19.30
2022-11-01T01:22:42.364Z,19.33
2022-11-01T01:25:10.425Z,19.34
2022-11-01T01:27:37.466Z,19.34
2022-11-01T01:30:05.689Z,19.34
2022-11-01T01:32:32.272Z,19.34
2022-11-01T01:34:58.880Z,19.32
2022-11-01T01:37:25.586Z,19.28
2022-11-01T01:39:53.297Z,19.29
2022-11-01T01:42:37.644Z,19.31
2022-11-01T01:45:15.104Z,19.34
2022-11-01T01:47:44.468Z,19.33
2022-11-01T01:50:16.331Z,19.38
2022-11-01T01:52:59.013Z,19.35
2022-11-01T01:55:34.695Z,19.25
2022-11-01T01:58:01.646Z,19.30
2022-11-01T02:00:28.664Z,19.28
2022-11-01T02:02:55.268Z,19.30
2022-11-01T02:05:38.075Z,19.31
2022-11-01T02:08:06.817Z,19.33
2022-11-01T02:10:34.360Z,19.28
2022-11-01T02:13:01.220Z,19.28
2022-11-01T02:15:54.071Z,19.34
2022-11-01T02:18:46.787Z,19.33
2022-11-01T02:21:48.723Z,19.36
2022-11-01T02:24:17.980Z,19.37
2022-11-01T02:26:59.508Z,19.22
2022-11-01T02:29:44.170Z,19.15
2022-11-01T02:32:19.843Z,19.25
2022-11-01T02:34:57.711Z,19.27
2022-11-01T02:37:32.848Z,19.18
2022-11-01T02:40:09.908Z,19.19
2022-11-01T02:42:41.551Z,19.15
2022-11-01T02:45:27.620Z,19.19
2022-11-01T02:47:56.553Z,19.09
2022-11-01T02:50:25.289Z,19.05
2022-11-01T02:52:53.200Z,19.07
2022-11-01T02:55:31.088Z,19.08
2022-11-01T02:58:01.998Z,19.08
2022-11-01T03:00:32.207Z,19.06
2022-11-01T03:03:13.789Z,19.02
2022-11-01T03:06:00.477Z,18.99
2022-11-01T03:08:49.848Z,19.05
2022-11-01T03:11:59.430Z,19.06
2022-11-01T03:14:41.745Z,19.08
2022-11-01T03:17:33.742Z,19.03
2022-11-01T03:20:15.304Z,18.97
2022-11-01T03:22:46.828Z,18.96
2022-11-01T03:25:40.660Z,18.96
2022-11-01T03:28:38.447Z,18.98
2022-11-01T03:31:12.072Z,18.95
2022-11-01T03:33:45.020Z,18.94
2022-11-01T03:36:18.066Z,18.94
2022-11-01T03:38:52.109Z,18.97
2022-11-01T03:41:21.346Z,18.91
2022-11-01T03:43:48.247Z,18.92
2022-11-01T03:46:35.889Z,18.94
2022-11-01T03:49:02.482Z,18.96
2022-11-01T03:51:29.144Z,18.94
2022-11-01T03:53:55.734Z,18.93
2022-11-01T03:56:22.511Z,18.89
2022-11-01T03:58:49.071Z,18.86
2022-11-01T04:01:17.589Z,18.88
2022-11-01T04:03:45.198Z,18.77
2022-11-01T04:06:11.779Z,18.77
2022-11-01T04:08:38.379Z,18.75
2022-11-01T04:11:05.083Z,18.74
2022-11-01T04:13:31.701Z,18.71
2022-11-01T04:16:17.759Z,18.73
2022-11-01T04:19:03.074Z,18.65
2022-11-01T04:21:32.165Z,18.57
2022-11-01T04:23:58.698Z,18.56
2022-11-01T04:26:25.245Z,18.56
2022-11-01T04:28:57.832Z,18.51
2022-11-01T04:31:27.044Z,18.52
2022-11-01T04:33:54.418Z,18.59
2022-11-01T04:36:21.005Z,18.59
2022-11-01T04:38:52.264Z,18.64
2022-11-01T04:41:19.717Z,18.65
2022-11-01T04:43:47.533Z,18.68
2022-11-01T04:46:14.360Z,18.67
2022-11-01T04:48:41.349Z,18.71
2022-11-01T04:51:09.061Z,18.74
2022-11-01T04:53:35.931Z,18.74
2022-11-01T04:56:04.518Z,18.74
2022-11-01T04:58:31.611Z,18.71
2022-11-01T05:00:58.171Z,18.75
2022-11-01T05:03:24.853Z,18.72
2022-11-01T05:05:51.473Z,18.69
2022-11-01T05:08:18.004Z,18.70
2022-11-01T05:10:44.980Z,18.70
2022-11-01T05:13:13.105Z,18.72
2022-11-01T05:15:40.035Z,18.72
2022-11-01T05:18:14.661Z,18.75
2022-11-01T05:20:41.230Z,18.78
2022-11-01T05:23:09.050Z,18.77
2022-11-01T05:25:38.076Z,18.78
2022-11-01T05:28:08.239Z,18.76
2022-11-01T05:30:35.825Z,18.68
2022-11-01T05:33:03.691Z,18.70
2022-11-01T05:35:30.612Z,18.71
2022-11-01T05:37:57.581Z,18.59
2022-11-01T05:40:24.676Z,18.45
2022-11-01T05:42:51.332Z,18.48
2022-11-01T05:45:17.887Z,18.50
2022-11-01T05:47:44.591Z,18.49
2022-11-01T05:50:13.463Z,18.50
2022-11-01T05:52:40.382Z,18.52
2022-11-01T05:55:08.216Z,18.54
2022-11-01T05:57:35.031Z,18.54
2022-11-01T06:00:01.659Z,18.61
2022-11-01T06:02:31.935Z,18.58
2022-11-01T06:05:02.601Z,18.59
2022-11-01T06:07:29.713Z,18.54
2022-11-01T06:09:56.241Z,18.59
2022-11-01T06:12:24.250Z,18.73
2022-11-01T06:14:50.954Z,18.71
2022-11-01T06:17:17.593Z,19.07
2022-11-01T06:19:44.127Z,19.35
2022-11-01T06:22:10.660Z,19.44
2022-11-01T06:24:37.179Z,19.48
2022-11-01T06:27:06.321Z,19.81
2022-11-01T06:29:35.132Z,19.87
2022-11-01T06:32:03.441Z,19.85
2022-11-01T06:34:30.044Z,19.84
2022-11-01T06:36:56.648Z,19.84
2022-11-01T06:39:23.204Z,19.85
2022-11-01T06:41:51.816Z,19.96
2022-11-01T06:44:18.364Z,19.97
2022-11-01T06:46:44.997Z,19.99
2022-11-01T06:49:16.335Z,20.08
2022-11-01T06:51:45.607Z,20.10
2022-11-01T06:54:12.137Z,20.11
2022-11-01T06:56:38.737Z,20.06
2022-11-01T06:59:05.334Z,20.02
2022-11-01T07:01:32.128Z,19.98
2022-11-01T07:03:58.771Z,20.00
2022-11-01T07:06:28.775Z,20.01
2022-11-01T07:08:55.632Z,20.05
2022-11-01T07:11:25.248Z,20.02
2022-11-01T07:13:55.301Z,19.95
2022-11-01T07:16:21.893Z,19.95
2022-11-01T07:18:48.557Z,19.96
2022-11-01T07:21:15.388Z,19.96
2022-11-01T07:23:41.931Z,19.93
2022-11-01T07:26:08.605Z,19.83
2022-11-01T07:28:35.264Z,19.75
2022-11-01T07:31:02.075Z,19.72
2022-11-01T07:33:28.615Z,19.66
2022-11-01T07:35:55.297Z,19.67
2022-11-01T07:38:21.943Z,19.65
2022-11-01T07:40:49.830Z,19.64
2022-11-01T07:43:17.616Z,19.54
2022-11-01T07:45:44.539Z,19.43
2022-11-01T07:48:13.112Z,19.38
2022-11-01T07:50:41.148Z,19.33
2022-11-01T07:53:18.842Z,19.20
2022-11-01T07:55:46.379Z,19.19
2022-11-01T07:58:14.087Z,19.10
2022-11-01T08:00:42.127Z,19.08
2022-11-01T08:03:12.577Z,19.07
2022-11-01T08:05:39.608Z,19.06
2022-11-01T08:08:06.864Z,19.09
2022-11-01T08:10:34.488Z,19.03
2022-11-01T08:13:07.925Z,19.00
2022-11-01T08:15:34.995Z,19.00
2022-11-01T08:18:02.162Z,19.11
2022-11-01T08:20:29.026Z,19.10
2022-11-01T08:22:55.850Z,19.11
2022-11-01T08:25:22.402Z,19.18
2022-11-01T08:27:48.975Z,19.11
2022-11-01T08:30:17.804Z,19.09
2022-11-01T08:32:45.283Z,19.11
2022-11-01T08:35:12.661Z,19.08
2022-11-01T08:37:51.537Z,19.17
2022-11-01T08:40:18.962Z,19.19
2022-11-01T08:42:45.659Z,19.09
2022-11-01T08:45:12.559Z,19.06
2022-11-01T08:47:42.123Z,19.09
2022-11-01T08:50:11.881Z,19.21
2022-11-01T08:52:39.438Z,19.22
2022-11-01T08:55:07.097Z,19.17
2022-11-01T08:57:34.105Z,19.15
2022-11-01T09:00:00.961Z,19.12
2022-11-01T09:02:27.663Z,19.09
2022-11-01T09:04:54.314Z,19.10
2022-11-01T09:07:20.957Z,19.06
2022-11-01T09:09:47.507Z,18.96
2022-11-01T09:12:14.943Z,18.97
2022-11-01T09:14:41.846Z,18.95
2022-11-01T09:17:08.467Z,19.05
2022-11-01T09:19:35.000Z,19.05
2022-11-01T09:22:01.554Z,19.13
2022-11-01T09:24:28.088Z,19.20
2022-11-01T09:26:54.842Z,19.19
2022-11-01T09:29:21.522Z,19.10
2022-11-01T09:31:52.307Z,19.03
2022-11-01T09:34:19.812Z,19.03
2022-11-01T09:36:47.604Z,19.02
2022-11-01T09:39:16.405Z,19.03
2022-11-01T09:41:47.610Z,19.02
2022-11-01T09:44:27.408Z,19.05
2022-11-01T09:47:02.267Z,19.03
2022-11-01T09:49:33.201Z,18.97
2022-11-01T09:52:00.045Z,18.92
2022-11-01T09:54:28.084Z,18.97
2022-11-01T09:57:31.237Z,19.08
2022-11-01T10:00:15.000Z,19.13
2022-11-01T10:03:17.884Z,19.32
2022-11-01T10:05:59.502Z,19.25
2022-11-01T10:08:44.652Z,19.35
2022-11-01T10:11:29.432Z,19.47
2022-11-01T10:14:04.681Z,19.52
2022-11-01T10:16:42.000Z,19.35
2022-11-01T10:19:15.871Z,20.04
2022-11-01T10:21:47.702Z,20.54
2022-11-01T10:24:23.208Z,22.33
2022-11-01T10:26:55.599Z,21.84
2022-11-01T10:29:39.899Z,21.74
2022-11-01T10:32:24.645Z,21.76
2022-11-01T10:34:53.224Z,21.94
2022-11-01T10:37:33.955Z,22.04
2022-11-01T10:40:09.146Z,21.95
2022-11-01T10:42:36.910Z,21.89
2022-11-01T10:45:08.843Z,21.93
2022-11-01T10:47:35.633Z,22.02
2022-11-01T10:50:12.561Z,22.07
2022-11-01T10:52:47.669Z,22.09
2022-11-01T10:55:39.551Z,22.12
2022-11-01T10:58:28.104Z,22.13
2022-11-01T11:00:54.919Z,22.21
2022-11-01T11:03:24.890Z,22.30
2022-11-01T11:05:52.286Z,22.32
2022-11-01T11:08:22.696Z,22.45
2022-11-01T11:10:49.703Z,22.45
2022-11-01T11:13:21.726Z,22.50
2022-11-01T11:16:00.539Z,22.62
2022-11-01T11:18:37.546Z,22.70
2022-11-01T11:21:08.703Z,22.80
2022-11-01T11:23:44.421Z,22.86
2022-11-01T11:26:17.505Z,22.82
2022-11-01T11:28:51.881Z,22.76
2022-11-01T11:31:23.176Z,22.74
2022-11-01T11:34:39.565Z,22.68
2022-11-01T11:37:15.027Z,22.74
2022-11-01T11:40:00.593Z,22.69
2022-11-01T11:42:27.167Z,22.77
2022-11-01T11:44:55.869Z,22.85
2022-11-01T11:47:29.045Z,22.84
2022-11-01T11:49:58.311Z,22.84
2022-11-01T11:52:38.962Z,22.91
2022-11-01T11:55:25.477Z,23.15
2022-11-01T11:57:54.384Z,23.05
2022-11-01T12:00:24.004Z,22.82
2022-11-01T12:02:50.886Z,22.57
2022-11-01T12:05:19.892Z,22.41
2022-11-01T12:07:57.040Z,22.32
2022-11-01T12:10:45.548Z,22.18
2022-11-01T12:13:27.887Z,22.13
2022-11-01T12:16:29.922Z,22.13
2022-11-01T12:18:57.984Z,22.12
2022-11-01T12:21:33.530Z,22.06
2022-11-01T12:24:18.606Z,22.01
2022-11-01T12:26:46.115Z,22.02
2022-11-01T12:29:24.802Z,22.07
2022-11-01T12:31:52.697Z,22.02
2022-11-01T12:34:31.233Z,22.04
2022-11-01T12:37:13.910Z,22.04
2022-11-01T12:39:55.655Z,22.12
2022-11-01T12:42:29.371Z,22.21
2022-11-01T12:45:10.014Z,22.19
2022-11-01T12:47:45.426Z,22.10
2022-11-01T12:50:36.696Z,22.00
2022-11-01T12:53:08.070Z,21.98
2022-11-01T12:55:37.851Z,21.98
2022-11-01T12:58:13.089Z,21.92
2022-11-01T13:01:05.822Z,21.96
2022-11-01T13:04:02.853Z,21.91
2022-11-01T13:06:55.122Z,21.92
2022-11-01T13:09:31.796Z,21.98
2022-11-01T13:12:08.205Z,21.99
2022-11-01T13:14:56.067Z,22.00
2022-11-01T13:17:37.447Z,22.03
2022-11-01T13:20:19.446Z,22.05
2022-11-01T13:22:49.004Z,22.20
2022-11-01T13:25:51.127Z,22.23
2022-11-01T13:28:20.611Z,22.26
2022-11-01T13:31:03.769Z,22.18
2022-11-01T13:33:42.261Z,22.14
2022-11-01T13:37:06.997Z,22.13
2022-11-01T13:39:59.385Z,22.16
2022-11-01T13:42:35.753Z,22.14
2022-11-01T13:45:19.583Z,22.12
2022-11-01T13:47:55.501Z,22.16
2022-11-01T13:50:40.587Z,22.29
2022-11-01T13:53:15.231Z,22.45
2022-11-01T13:55:58.038Z,22.60
2022-11-01T13:58:25.933Z,22.66
2022-11-01T14:00:54.543Z,22.65
2022-11-01T14:03:25.684Z,22.62
2022-11-01T14:06:11.284Z,22.61
2022-11-01T14:08:43.010Z,22.42
2022-11-01T14:11:33.219Z,22.34
2022-11-01T14:14:00.012Z,22.28
2022-11-01T14:16:28.153Z,22.26
2022-11-01T14:19:03.964Z,22.22
2022-11-01T14:21:45.263Z,22.19
2022-11-01T14:24:24.313Z,22.16
2022-11-01T14:27:17.617Z,22.16
2022-11-01T14:29:44.182Z,22.15
2022-11-01T14:32:11.811Z,22.11
2022-11-01T14:34:41.219Z,22.12
2022-11-01T14:37:17.356Z,22.14
2022-11-01T14:39:54.613Z,22.09
2022-11-01T14:42:26.504Z,22.09
2022-11-01T14:44:56.295Z,22.07
2022-11-01T14:47:31.735Z,22.04
2022-11-01T14:50:02.782Z,22.04
2022-11-01T14:52:40.836Z,21.95
2022-11-01T14:55:32.268Z,22.01
2022-11-01T14:58:18.117Z,22.08
2022-11-01T15:00:45.708Z,22.09
2022-11-01T15:03:12.586Z,22.06
2022-11-01T15:05:44.273Z,22.03
2022-11-01T15:08:33.622Z,22.07
2022-11-01T15:11:03.447Z,22.06
2022-11-01T15:13:33.766Z,22.05
2022-11-01T15:16:18.942Z,22.09
2022-11-01T15:19:04.749Z,22.06
2022-11-01T15:21:33.925Z,22.06
2022-11-01T15:24:02.484Z,22.07
2022-11-01T15:26:32.708Z,22.07
2022-11-01T15:29:04.248Z,22.09
2022-11-01T15:31:31.838Z,22.08
2022-11-01T15:34:19.787Z,22.05
2022-11-01T15:36:46.373Z,22.02
2022-11-01T15:39:24.515Z,22.05
2022-11-01T15:41:53.759Z,22.09
2022-11-01T15:44:26.217Z,22.10
2022-11-01T15:46:57.715Z,22.10
2022-11-01T15:49:37.282Z,22.11
2022-11-01T15:52:20.319Z,22.15
2022-11-01T15:55:28.168Z,22.11
2022-11-01T15:58:13.880Z,22.08
2022-11-01T16:00:51.918Z,22.06
2022-11-01T16:03:29.761Z,22.05
2022-11-01T16:06:21.613Z,22.03
2022-11-01T16:09:14.940Z,22.03
2022-11-01T16:11:41.751Z,22.04
2022-11-01T16:14:27.117Z,22.02
2022-11-01T16:16:59.101Z,22.05
2022-11-01T16:19:48.323Z,22.03
2022-11-01T16:22:42.104Z,22.03
2022-11-01T16:25:11.400Z,22.00
2022-11-01T16:28:07.270Z,22.06
2022-11-01T16:30:38.895Z,22.05
2022-11-01T16:33:17.367Z,22.07
2022-11-01T16:35:45.636Z,22.02
2022-11-01T16:38:34.796Z,22.02
2022-11-01T16:41:26.746Z,22.00
2022-11-01T16:43:55.900Z,22.00
2022-11-01T16:46:24.392Z,21.98
2022-11-01T16:48:59.579Z,22.01
2022-11-01T16:51:28.609Z,21.96
2022-11-01T16:54:02.916Z,21.98
2022-11-01T16:56:37.695Z,21.96
2022-11-01T16:59:27.652Z,21.96
2022-11-01T17:01:58.400Z,21.96
2022-11-01T17:04:26.954Z,21.94
2022-11-01T17:06:55.281Z,21.91
2022-11-01T17:09:22.727Z,21.91
2022-11-01T17:11:51.830Z,21.91
2022-11-01T17:14:19.560Z,21.92
2022-11-01T17:16:47.721Z,21.92
2022-11-01T17:19:23.294Z,21.92
2022-11-01T17:21:51.932Z,21.88
2022-11-01T17:24:21.294Z,21.89
2022-11-01T17:26:49.352Z,21.83
2022-11-01T17:29:16.263Z,21.83
2022-11-01T17:31:42.993Z,21.85
2022-11-01T17:34:09.654Z,21.87
2022-11-01T17:36:36.467Z,21.86
2022-11-01T17:39:03.979Z,21.83
2022-11-01T17:41:30.667Z,21.85
2022-11-01T17:43:57.196Z,21.86
2022-11-01T17:46:25.612Z,21.86
2022-11-01T17:48:52.176Z,21.86
2022-11-01T17:51:18.954Z,21.85
2022-11-01T17:53:45.761Z,21.87
2022-11-01T17:56:12.281Z,21.88
2022-11-01T17:58:38.923Z,21.87
2022-11-01T18:01:07.509Z,21.89
2022-11-01T18:03:34.240Z,21.91
2022-11-01T18:06:00.872Z,21.90
2022-11-01T18:08:30.808Z,21.91
2022-11-01T18:11:10.877Z,21.95
2022-11-01T18:14:01.126Z,21.93
2022-11-01T18:17:04.571Z,21.91
2022-11-01T18:19:45.613Z,21.92
2022-11-01T18:22:12.095Z,21.91
2022-11-01T18:24:46.272Z,21.94
2022-11-01T18:27:17.960Z,21.92
2022-11-01T18:29:48.600Z,21.94
2022-11-01T18:32:28.079Z,21.95
2022-11-01T18:35:17.692Z,21.93
2022-11-01T18:38:25.890Z,21.94
2022-11-01T18:40:58.320Z,21.93
2022-11-01T18:43:34.604Z,21.91
2022-11-01T18:46:25.049Z,21.93
2022-11-01T18:49:00.160Z,21.90
2022-11-01T18:51:30.254Z,21.90
2022-11-01T18:54:23.906Z,21.93
2022-11-01T18:56:58.080Z,21.92
2022-11-01T18:59:31.464Z,21.90
2022-11-01T19:02:03.446Z,21.88
2022-11-01T19:04:31.816Z,21.86
2022-11-01T19:07:11.987Z,21.86
2022-11-01T19:09:43.958Z,21.83
2022-11-01T19:12:29.605Z,21.83
2022-11-01T19:14:59.787Z,21.88
2022-11-01T19:17:29.345Z,21.85
2022-11-01T19:19:59.878Z,21.87
2022-11-01T19:22:33.549Z,21.84
2022-11-01T19:25:01.579Z,21.85
2022-11-01T19:27:29.129Z,21.82
2022-11-01T19:29:58.909Z,21.82
2022-11-01T19:32:26.348Z,21.80
2022-11-01T19:34:53.061Z,21.80
2022-11-01T19:37:25.190Z,21.82
2022-11-01T19:39:52.558Z,21.83
2022-11-01T19:42:21.954Z,21.85
2022-11-01T19:44:48.516Z,21.85
2022-11-01T19:47:32.525Z,21.85
2022-11-01T19:49:59.091Z,21.85
2022-11-01T19:52:36.750Z,21.88
2022-11-01T19:55:34.546Z,21.90
2022-11-01T19:58:01.662Z,21.91
2022-11-01T20:00:29.254Z,21.94
2022-11-01T20:02:59.202Z,21.97
2022-11-01T20:05:34.295Z,21.98
2022-11-01T20:08:31.005Z,21.94
2022-11-01T20:10:57.569Z,21.91
2022-11-01T20:13:24.099Z,21.93
2022-11-01T20:15:50.668Z,21.90
2022-11-01T20:18:17.209Z,21.92
2022-11-01T20:20:46.516Z,21.93
2022-11-01T20:23:25.944Z,21.92
2022-11-01T20:25:53.131Z,21.91
2022-11-01T20:28:19.664Z,21.86
2022-11-01T20:30:46.298Z,21.86
2022-11-01T20:33:13.325Z,21.87
2022-11-01T20:35:40.103Z,21.85
2022-11-01T20:38:06.739Z,21.87
2022-11-01T20:40:33.294Z,21.86
2022-11-01T20:43:00.166Z,21.85
2022-11-01T20:45:27.004Z,21.85
2022-11-01T20:47:53.561Z,21.84
2022-11-01T20:50:20.224Z,21.87
2022-11-01T20:52:46.868Z,21.87
2022-11-01T20:55:13.457Z,21.86
2022-11-01T20:57:40.077Z,21.87
2022-11-01T21:00:09.974Z,21.88
2022-11-01T21:02:36.833Z,21.88
2022-11-01T21:05:17.909Z,21.87
2022-11-01T21:07:47.766Z,21.88
2022-11-01T21:10:35.601Z,21.88
2022-11-01T21:13:07.521Z,21.89
2022-11-01T21:15:36.981Z,21.89
2022-11-01T21:18:12.310Z,21.89
2022-11-01T21:20:41.373Z,21.84
2022-11-01T21:23:28.442Z,21.86
2022-11-01T21:26:00.215Z,21.84
2022-11-01T21:28:31.948Z,21.88
2022-11-01T21:31:09.284Z,21.87
2022-11-01T21:33:39.148Z,21.88
2022-11-01T21:36:21.026Z,21.88
2022-11-01T21:38:58.632Z,21.86
2022-11-01T21:41:47.688Z,21.85
2022-11-01T21:44:30.837Z,21.84
2022-11-01T21:47:14.001Z,21.84
2022-11-01T21:49:40.796Z,21.82
2022-11-01T21:52:08.756Z,21.84
2022-11-01T21:54:37.330Z,21.83
2022-11-01T21:57:06.294Z,21.83
2022-11-01T21:59:33.044Z,21.83
2022-11-01T22:02:03.453Z,21.82
2022-11-01T22:04:31.613Z,21.83
2022-11-01T22:07:03.896Z,21.84
2022-11-01T22:09:31.283Z,21.82
2022-11-01T22:11:59.043Z,21.83
2022-11-01T22:14:26.011Z,21.84
2022-11-01T22:16:52.722Z,21.86
2022-11-01T22:19:19.261Z,21.82
2022-11-01T22:24:17.538Z,21.82
2022-11-01T22:26:44.047Z,21.82
2022-11-01T22:29:10.612Z,21.81
2022-11-01T22:31:37.135Z,21.83
2022-11-01T22:34:03.888Z,21.81
2022-11-01T22:36:34.609Z,21.82
2022-11-01T22:39:06.675Z,21.82
2022-11-01T22:41:34.772Z,21.83
2022-11-01T22:44:13.685Z,21.82
2022-11-01T22:46:53.567Z,21.83
2022-11-01T22:49:30.789Z,21.80
2022-11-01T22:52:02.107Z,21.80
2022-11-01T22:54:32.068Z,21.82
2022-11-01T22:57:10.357Z,21.79
2022-11-01T22:59:56.258Z,21.79
2022-11-01T23:02:29.151Z,21.78
2022-11-01T23:05:25.541Z,21.78
2022-11-01T23:07:58.049Z,21.77
2022-11-01T23:10:30.964Z,21.74
2022-11-01T23:13:31.060Z,21.73
2022-11-01T23:16:03.468Z,21.76
2022-11-01T23:18:33.117Z,21.76
2022-11-01T23:21:08.072Z,21.76
2022-11-01T23:23:36.726Z,21.74
2022-11-01T23:26:04.042Z,21.76
2022-11-01T23:28:35.017Z,21.74
2022-11-01T23:31:04.788Z,21.75
2022-11-01T23:33:39.924Z,21.76
2022-11-01T23:36:22.278Z,21.75
2022-11-01T23:38:53.209Z,21.73
2022-11-01T23:41:25.664Z,21.76
2022-11-01T23:43:55.754Z,21.75
2022-11-01T23:46:24.211Z,21.74
2022-11-01T23:49:18.077Z,21.76
2022-11-01T23:51:45.245Z,21.76
2022-11-01T23:54:32.271Z,21.74
2022-11-01T23:56:58.837Z,21.72
2022-11-01T23:59:25.770Z,21.74
